Time;durP1;ratioP1;P1;durP2;ratioP2;P2;SDS_P1;SDS_P2;PMS_P1;PMS_P2;Temp;Humidity;BMP_temperature;BMP_pressure;BME280_temperature;BME280_humidity;BME280_pressure;Samples;Min_cycle;Max_cycle;Signal;HPM_P1;HPM_P2
2023/09/14 00:02:11;;;;;;;;;14.75;12.50;;;;;;;;5122044;27;8841;-77
2023/09/14 00:04:37;;;;;;;;;14.00;13.00;;;;;;;;5123915;27;8765;-77
2023/09/14 00:07:02;;;;;;;;;13.25;13.25;;;;;;;;5130486;27;10109;-77
2023/09/14 00:09:27;;;;;;;;;16.50;14.25;;;;;;;;5141306;27;8903;-77
2023/09/14 00:11:52;;;;;;;;;13.75;12.75;;;;;;;;5121643;27;8842;-77
2023/09/14 00:14:18;;;;;;;;;10.50;10.25;;;;;;;;5122601;28;10988;-77
2023/09/14 00:16:43;;;;;;;;;13.00;12.00;;;;;;;;5137272;27;8820;-77
2023/09/14 00:19:09;;;;;;;;;14.50;12.50;;;;;;;;5136597;27;8795;-77
2023/09/14 00:21:34;;;;;;;;;13.75;12.75;;;;;;;;5122007;27;8826;-77
2023/09/14 00:23:59;;;;;;;;;12.00;11.00;;;;;;;;5124014;27;8788;-77
2023/09/14 00:26:24;;;;;;;;;14.50;10.25;;;;;;;;5141398;27;8883;-77
2023/09/14 00:28:50;;;;;;;;;14.50;13.00;;;;;;;;5143717;27;8785;-78
2023/09/14 00:31:15;;;;;;;;;14.25;13.50;;;;;;;;5122721;27;8926;-77
2023/09/14 00:33:40;;;;;;;;;19.00;14.75;;;;;;;;5123398;28;8771;-77
2023/09/14 00:36:05;;;;;;;;;16.75;14.50;;;;;;;;5139548;27;8852;-77
2023/09/14 00:38:30;;;;;;;;;16.00;14.00;;;;;;;;5144457;27;8811;-77
2023/09/14 00:40:56;;;;;;;;;16.25;14.25;;;;;;;;5131110;27;8911;-77
2023/09/14 00:43:21;;;;;;;;;11.00;11.00;;;;;;;;5105913;28;8951;-78
2023/09/14 00:45:47;;;;;;;;;11.75;11.75;;;;;;;;5119400;27;8917;-77
2023/09/14 00:48:12;;;;;;;;;14.75;14.25;;;;;;;;5122615;27;8803;-77
2023/09/14 00:50:38;;;;;;;;;13.75;11.50;;;;;;;;5123258;27;8913;-77
2023/09/14 00:53:06;;;;;;;;;14.00;12.75;;;;;;;;5122216;28;10510;-77
2023/09/14 00:55:32;;;;;;;;;18.00;15.25;;;;;;;;5122453;27;10061;-77
2023/09/14 00:57:57;;;;;;;;;19.75;17.75;;;;;;;;5123772;27;10013;-77
2023/09/14 01:00:23;;;;;;;;;16.00;14.75;;;;;;;;5122070;28;10117;-77
2023/09/14 01:02:52;;;;;;;;;16.00;13.00;;;;;;;;5142474;27;8847;-77
2023/09/14 01:05:17;;;;;;;;;17.00;15.00;;;;;;;;5143963;27;8831;-77
2023/09/14 01:07:42;;;;;;;;;15.75;13.25;;;;;;;;5123797;27;9882;-77
2023/09/14 01:10:09;;;;;;;;;15.75;13.75;;;;;;;;5123489;28;9555;-77
2023/09/14 01:12:35;;;;;;;;;17.75;16.00;;;;;;;;5123455;27;8852;-77
2023/09/14 01:15:06;;;;;;;;;16.00;15.50;;;;;;;;5143029;27;10195;-77
2023/09/14 01:17:34;;;;;;;;;16.25;12.25;;;;;;;;5142862;27;8744;-77
2023/09/14 01:20:23;;;;;;;;;17.75;16.25;;;;;;;;5128619;27;10113;-77
2023/09/14 01:22:54;;;;;;;;;16.00;16.00;;;;;;;;5122270;27;10233;-77
2023/09/14 01:25:23;;;;;;;;;19.75;14.50;;;;;;;;5120546;28;11210;-77
2023/09/14 01:27:48;;;;;;;;;17.25;16.25;;;;;;;;5131215;27;10179;-77
2023/09/14 01:30:14;;;;;;;;;18.25;14.50;;;;;;;;5132671;27;9978;-77
2023/09/14 01:32:39;;;;;;;;;19.75;17.75;;;;;;;;5133938;27;8820;-77
2023/09/14 01:35:05;;;;;;;;;15.50;14.00;;;;;;;;5130652;27;8934;-77
2023/09/14 01:37:30;;;;;;;;;17.00;15.50;;;;;;;;5122951;27;8790;-77
2023/09/14 01:39:56;;;;;;;;;17.50;16.50;;;;;;;;5138714;27;8816;-77
2023/09/14 01:42:21;;;;;;;;;22.75;18.00;;;;;;;;5122765;27;8845;-77
2023/09/14 01:44:46;;;;;;;;;20.75;15.25;;;;;;;;5114455;27;8805;-77
2023/09/14 01:47:12;;;;;;;;;14.25;11.75;;;;;;;;5101811;28;8774;-77
2023/09/14 01:49:37;;;;;;;;;19.50;16.00;;;;;;;;5117584;27;8810;-77
2023/09/14 01:52:02;;;;;;;;;13.75;12.75;;;;;;;;5137843;27;8796;-77
2023/09/14 01:54:28;;;;;;;;;14.75;14.75;;;;;;;;5122013;27;8776;-77
2023/09/14 01:56:53;;;;;;;;;22.25;19.50;;;;;;;;5122595;27;8799;-77
2023/09/14 01:59:18;;;;;;;;;22.75;16.00;;;;;;;;5125138;27;8779;-77
2023/09/14 02:01:43;;;;;;;;;9.75;6.50;;;;;;;;5132607;27;8993;-77
2023/09/14 02:04:09;;;;;;;;;11.25;9.25;;;;;;;;5125968;28;8807;-77
2023/09/14 02:06:34;;;;;;;;;19.75;17.00;;;;;;;;5138193;27;8816;-77
2023/09/14 02:08:59;;;;;;;;;15.00;13.50;;;;;;;;5146874;27;8776;-77
2023/09/14 02:11:24;;;;;;;;;15.00;14.00;;;;;;;;5145257;27;9924;-77
2023/09/14 02:13:50;;;;;;;;;13.75;11.50;;;;;;;;5146486;27;8780;-77
2023/09/14 02:16:16;;;;;;;;;16.75;15.00;;;;;;;;5142963;27;8797;-77
2023/09/14 02:18:41;;;;;;;;;12.25;12.25;;;;;;;;5120824;28;8750;-77
2023/09/14 02:21:06;;;;;;;;;17.50;17.50;;;;;;;;5104130;28;10211;-77
2023/09/14 02:23:32;;;;;;;;;15.00;12.00;;;;;;;;5105560;28;8837;-77
2023/09/14 02:25:57;;;;;;;;;18.50;15.75;;;;;;;;5102751;28;8913;-77
2023/09/14 02:28:22;;;;;;;;;17.25;13.00;;;;;;;;5104969;28;8781;-77
2023/09/14 02:30:48;;;;;;;;;16.75;14.75;;;;;;;;5127907;27;9852;-77
2023/09/14 02:33:13;;;;;;;;;16.00;15.00;;;;;;;;5131187;27;8819;-77
2023/09/14 02:35:39;;;;;;;;;11.25;11.25;;;;;;;;5146306;27;9617;-77
2023/09/14 02:38:04;;;;;;;;;13.75;13.25;;;;;;;;5146576;27;8777;-77
2023/09/14 02:40:30;;;;;;;;;17.00;15.75;;;;;;;;5138554;27;9988;-77
2023/09/14 02:42:55;;;;;;;;;13.50;13.50;;;;;;;;5144603;27;8843;-77
2023/09/14 02:45:20;;;;;;;;;14.00;11.00;;;;;;;;5145320;27;8816;-77
2023/09/14 02:47:45;;;;;;;;;15.25;13.00;;;;;;;;5132818;27;8870;-77
2023/09/14 02:50:11;;;;;;;;;13.50;12.75;;;;;;;;5125728;28;8795;-77
2023/09/14 02:52:36;;;;;;;;;14.25;11.50;;;;;;;;5124163;28;8806;-77
2023/09/14 02:55:02;;;;;;;;;19.75;13.75;;;;;;;;5123177;27;8787;-77
2023/09/14 02:57:27;;;;;;;;;13.25;12.50;;;;;;;;5125143;27;8791;-77
2023/09/14 02:59:53;;;;;;;;;14.00;13.00;;;;;;;;5125201;27;8799;-77
2023/09/14 03:02:18;;;;;;;;;14.50;11.50;;;;;;;;5123470;28;8791;-77
2023/09/14 03:04:43;;;;;;;;;17.00;13.75;;;;;;;;5121661;27;8790;-77
2023/09/14 03:07:09;;;;;;;;;15.50;12.50;;;;;;;;5104838;28;8793;-77
2023/09/14 03:09:34;;;;;;;;;13.00;12.25;;;;;;;;5123229;27;9876;-77
2023/09/14 03:11:59;;;;;;;;;15.00;12.25;;;;;;;;5143710;27;9313;-77
2023/09/14 03:14:24;;;;;;;;;13.75;12.00;;;;;;;;5134677;27;8777;-76
2023/09/14 03:16:50;;;;;;;;;16.50;14.00;;;;;;;;5126669;28;8796;-77
2023/09/14 03:19:15;;;;;;;;;14.00;12.00;;;;;;;;5116667;27;8793;-77
2023/09/14 03:21:40;;;;;;;;;12.25;11.25;;;;;;;;5104157;28;8786;-77
2023/09/14 03:24:05;;;;;;;;;7.75;6.00;;;;;;;;5102680;28;8801;-77
2023/09/14 03:26:31;;;;;;;;;18.00;13.50;;;;;;;;5136239;27;8836;-77
2023/09/14 03:28:56;;;;;;;;;14.00;11.00;;;;;;;;5104450;28;8972;-77
2023/09/14 03:31:21;;;;;;;;;16.00;11.25;;;;;;;;5116306;28;8803;-77
2023/09/14 03:33:47;;;;;;;;;16.25;12.25;;;;;;;;5123498;28;8806;-77
2023/09/14 03:36:13;;;;;;;;;13.25;11.50;;;;;;;;5123370;28;8779;-77
2023/09/14 03:38:38;;;;;;;;;12.75;12.75;;;;;;;;5124926;27;8767;-77
2023/09/14 03:41:03;;;;;;;;;16.50;11.75;;;;;;;;5124101;27;8779;-77
2023/09/14 03:43:28;;;;;;;;;15.00;13.50;;;;;;;;5124649;27;8759;-77
2023/09/14 03:45:55;;;;;;;;;13.50;12.25;;;;;;;;5111750;28;8931;-77
2023/09/14 03:48:20;;;;;;;;;15.25;13.00;;;;;;;;5104261;28;8774;-77
2023/09/14 03:50:46;;;;;;;;;12.25;11.25;;;;;;;;5104169;28;10147;-77
2023/09/14 03:53:11;;;;;;;;;12.00;11.50;;;;;;;;5129515;27;8788;-77
2023/09/14 03:55:36;;;;;;;;;14.50;13.25;;;;;;;;5143839;27;8784;-77
2023/09/14 03:58:01;;;;;;;;;16.25;12.75;;;;;;;;5143558;27;9984;-77
2023/09/14 04:00:27;;;;;;;;;16.75;12.75;;;;;;;;5113691;27;8863;-77
2023/09/14 04:02:53;;;;;;;;;13.25;11.25;;;;;;;;5105549;27;8778;-77
2023/09/14 04:05:18;;;;;;;;;22.00;15.25;;;;;;;;5123999;27;8739;-77
2023/09/14 04:07:44;;;;;;;;;13.25;12.25;;;;;;;;5124214;27;10487;-77
2023/09/14 04:10:10;;;;;;;;;16.25;15.00;;;;;;;;5122634;28;8806;-77
2023/09/14 04:12:36;;;;;;;;;14.75;14.75;;;;;;;;5124276;27;8796;-77
2023/09/14 04:15:02;;;;;;;;;11.00;9.75;;;;;;;;5124081;27;10188;-77
2023/09/14 04:17:28;;;;;;;;;24.00;15.50;;;;;;;;5123619;27;10483;-77
2023/09/14 04:19:53;;;;;;;;;12.00;9.50;;;;;;;;5108792;28;8790;-77
2023/09/14 04:22:18;;;;;;;;;11.75;10.25;;;;;;;;5128096;27;8784;-77
2023/09/14 04:24:44;;;;;;;;;18.25;16.25;;;;;;;;5142896;27;8800;-77
2023/09/14 04:27:09;;;;;;;;;11.75;11.75;;;;;;;;5123099;27;10000;-77
2023/09/14 04:29:34;;;;;;;;;12.00;11.50;;;;;;;;5122984;27;8906;-77
2023/09/14 04:31:59;;;;;;;;;19.75;11.00;;;;;;;;5123322;27;8819;-77
2023/09/14 04:34:25;;;;;;;;;12.50;11.50;;;;;;;;5122605;28;8892;-77
2023/09/14 04:36:50;;;;;;;;;11.25;9.25;;;;;;;;5122440;28;9947;-77
2023/09/14 04:39:16;;;;;;;;;12.50;11.50;;;;;;;;5123046;28;11599;-77
2023/09/14 04:41:41;;;;;;;;;14.50;13.00;;;;;;;;5121975;28;8803;-77
2023/09/14 04:44:06;;;;;;;;;12.00;10.50;;;;;;;;5122570;27;9237;-77
2023/09/14 04:46:32;;;;;;;;;20.00;11.00;;;;;;;;5136663;27;8808;-77
2023/09/14 04:48:57;;;;;;;;;9.50;9.50;;;;;;;;5133581;27;9030;-77
2023/09/14 04:51:23;;;;;;;;;10.25;9.50;;;;;;;;5123631;28;8866;-77
2023/09/14 04:53:48;;;;;;;;;11.00;9.50;;;;;;;;5123070;27;9496;-76
2023/09/14 04:56:14;;;;;;;;;11.00;11.00;;;;;;;;5121549;28;8804;-77
2023/09/14 04:58:39;;;;;;;;;13.25;11.25;;;;;;;;5122226;28;8920;-77
2023/09/14 05:01:05;;;;;;;;;8.00;7.00;;;;;;;;5123289;27;8868;-77
2023/09/14 05:03:30;;;;;;;;;14.00;11.25;;;;;;;;5122100;28;8790;-77
2023/09/14 05:05:56;;;;;;;;;15.00;14.00;;;;;;;;5123151;27;8819;-74
2023/09/14 05:08:21;;;;;;;;;21.50;17.25;;;;;;;;5110205;28;8853;-74
2023/09/14 05:10:50;;;;;;;;;15.25;12.25;;;;;;;;5101263;28;8786;-72
2023/09/14 05:13:26;;;;;;;;;15.75;12.00;;;;;;;;5123651;28;8779;-76
2023/09/14 05:15:52;;;;;;;;;10.00;10.00;;;;;;;;5122768;27;10578;-79
2023/09/14 05:18:18;;;;;;;;;14.75;13.00;;;;;;;;5121053;28;10199;-78
2023/09/14 05:20:43;;;;;;;;;14.00;12.50;;;;;;;;5122881;27;10533;-79
2023/09/14 05:23:09;;;;;;;;;15.25;11.25;;;;;;;;5123153;27;8779;-75
2023/09/14 05:25:34;;;;;;;;;15.25;13.50;;;;;;;;5122414;27;8819;-78
2023/09/14 05:27:59;;;;;;;;;18.00;14.25;;;;;;;;5122395;27;8817;-78
2023/09/14 05:30:25;;;;;;;;;12.75;9.00;;;;;;;;5121164;27;8896;-79
2023/09/14 05:32:50;;;;;;;;;10.75;9.75;;;;;;;;5119656;28;8791;-79
2023/09/14 05:35:16;;;;;;;;;12.50;9.25;;;;;;;;5122677;27;8765;-82
2023/09/14 05:37:41;;;;;;;;;12.25;11.75;;;;;;;;5119769;28;10434;-81
2023/09/14 05:40:09;;;;;;;;;12.50;10.25;;;;;;;;5131448;27;8803;-81
2023/09/14 05:42:37;;;;;;;;;13.00;12.00;;;;;;;;5137077;27;8963;-81
2023/09/14 05:45:02;;;;;;;;;9.50;7.00;;;;;;;;5132000;27;10513;-77
2023/09/14 05:47:27;;;;;;;;;18.25;13.50;;;;;;;;5132916;27;10539;-82
2023/09/14 05:49:53;;;;;;;;;14.00;14.00;;;;;;;;5131852;27;8747;-77
2023/09/14 05:52:18;;;;;;;;;13.25;13.25;;;;;;;;5133596;27;8781;-77
2023/09/14 05:54:43;;;;;;;;;10.25;10.25;;;;;;;;5136641;27;10158;-77
2023/09/14 05:57:09;;;;;;;;;12.25;10.75;;;;;;;;5123683;27;9426;-77
2023/09/14 05:59:34;;;;;;;;;17.75;13.25;;;;;;;;5121040;27;9322;-76
2023/09/14 06:02:00;;;;;;;;;16.00;11.75;;;;;;;;5121785;27;11529;-77
2023/09/14 06:04:25;;;;;;;;;13.00;13.00;;;;;;;;5120094;28;10069;-76
2023/09/14 06:06:50;;;;;;;;;11.75;11.75;;;;;;;;5120534;27;8970;-76
2023/09/14 06:09:15;;;;;;;;;14.00;13.00;;;;;;;;5120141;28;8795;-77
2023/09/14 06:11:41;;;;;;;;;16.75;12.25;;;;;;;;5125635;27;8799;-76
2023/09/14 06:14:06;;;;;;;;;10.75;10.00;;;;;;;;5122643;27;8794;-76
2023/09/14 06:16:32;;;;;;;;;18.00;13.00;;;;;;;;5121983;27;8921;-76
2023/09/14 06:18:57;;;;;;;;;18.25;12.50;;;;;;;;5117988;28;8803;-76
2023/09/14 06:21:22;;;;;;;;;14.25;12.00;;;;;;;;5133942;27;8858;-76
2023/09/14 06:23:49;;;;;;;;;12.25;10.25;;;;;;;;5142175;27;8816;-76
2023/09/14 06:26:14;;;;;;;;;15.50;11.50;;;;;;;;5133022;27;8781;-76
2023/09/14 06:28:40;;;;;;;;;17.00;16.00;;;;;;;;5120292;27;10367;-76
2023/09/14 06:31:05;;;;;;;;;12.50;10.25;;;;;;;;5111623;27;8807;-76
2023/09/14 06:33:30;;;;;;;;;14.50;12.50;;;;;;;;5120679;28;10054;-76
2023/09/14 06:35:56;;;;;;;;;14.25;13.00;;;;;;;;5121482;28;8909;-76
2023/09/14 06:38:21;;;;;;;;;15.25;15.00;;;;;;;;5122410;27;8780;-77
2023/09/14 06:40:46;;;;;;;;;12.25;12.00;;;;;;;;5121460;27;8901;-76
2023/09/14 06:43:12;;;;;;;;;15.75;13.00;;;;;;;;5138144;27;8797;-76
2023/09/14 06:45:37;;;;;;;;;16.75;13.50;;;;;;;;5124576;27;8819;-76
2023/09/14 06:48:02;;;;;;;;;13.00;13.00;;;;;;;;5125202;27;8803;-76
2023/09/14 06:50:27;;;;;;;;;18.25;17.00;;;;;;;;5122979;28;8840;-76
2023/09/14 06:52:53;;;;;;;;;14.00;12.75;;;;;;;;5124479;27;8803;-76
2023/09/14 06:55:19;;;;;;;;;14.50;14.00;;;;;;;;5124965;27;8845;-78
2023/09/14 06:57:45;;;;;;;;;21.75;17.50;;;;;;;;5124027;27;9222;-78
2023/09/14 07:00:14;;;;;;;;;18.75;17.00;;;;;;;;5124478;27;10215;-76
2023/09/14 07:02:40;;;;;;;;;15.75;11.50;;;;;;;;5124332;27;8731;-75
2023/09/14 07:05:05;;;;;;;;;14.25;14.25;;;;;;;;5123063;28;10204;-75
2023/09/14 07:07:30;;;;;;;;;17.00;15.00;;;;;;;;5125360;28;8765;-76
2023/09/14 07:09:56;;;;;;;;;14.00;14.00;;;;;;;;5105928;27;8809;-75
2023/09/14 07:12:21;;;;;;;;;15.25;14.00;;;;;;;;5104372;28;8785;-76
2023/09/14 07:14:47;;;;;;;;;12.00;11.75;;;;;;;;5120448;28;8812;-76
2023/09/14 07:17:12;;;;;;;;;21.50;14.25;;;;;;;;5103682;28;8974;-76
2023/09/14 07:19:37;;;;;;;;;20.25;14.25;;;;;;;;5119375;27;8801;-76
2023/09/14 07:22:03;;;;;;;;;16.00;12.75;;;;;;;;5145328;27;8781;-76
2023/09/14 07:24:28;;;;;;;;;17.25;16.25;;;;;;;;5129968;27;8799;-76
2023/09/14 07:26:54;;;;;;;;;15.50;15.50;;;;;;;;5124036;27;8819;-75
2023/09/14 07:29:19;;;;;;;;;19.50;14.75;;;;;;;;5124901;27;8786;-76
2023/09/14 07:31:45;;;;;;;;;20.75;17.50;;;;;;;;5130262;27;10040;-75
2023/09/14 07:34:11;;;;;;;;;16.00;14.25;;;;;;;;5145066;27;8709;-75
2023/09/14 07:36:36;;;;;;;;;17.75;15.75;;;;;;;;5145341;27;9710;-76
2023/09/14 07:39:02;;;;;;;;;16.25;14.25;;;;;;;;5145443;27;8869;-76
2023/09/14 07:41:27;;;;;;;;;17.00;17.00;;;;;;;;5145332;27;8861;-76
2023/09/14 07:43:52;;;;;;;;;17.00;16.00;;;;;;;;5145569;27;8877;-76
2023/09/14 07:46:18;;;;;;;;;20.25;20.25;;;;;;;;5143531;27;8820;-76
2023/09/14 07:48:43;;;;;;;;;21.25;16.25;;;;;;;;5144605;27;8839;-76
2023/09/14 07:51:08;;;;;;;;;16.50;16.50;;;;;;;;5144650;27;8784;-76
2023/09/14 07:53:33;;;;;;;;;19.75;17.75;;;;;;;;5144935;27;8788;-76
2023/09/14 07:55:59;;;;;;;;;24.25;22.50;;;;;;;;5137344;27;8826;-75
2023/09/14 07:58:24;;;;;;;;;25.75;22.25;;;;;;;;5107585;27;8820;-75
2023/09/14 08:00:49;;;;;;;;;26.25;19.00;;;;;;;;5119566;28;10035;-76
2023/09/14 08:03:14;;;;;;;;;25.75;21.00;;;;;;;;5103269;28;8762;-76
2023/09/14 08:05:43;;;;;;;;;20.25;17.00;;;;;;;;5112500;27;8883;-76
2023/09/14 08:08:09;;;;;;;;;23.00;21.00;;;;;;;;5145283;27;8784;-76
2023/09/14 08:10:34;;;;;;;;;18.00;17.25;;;;;;;;5143304;27;10475;-76
2023/09/14 08:13:00;;;;;;;;;21.50;19.25;;;;;;;;5123773;28;8896;-78
2023/09/14 08:15:26;;;;;;;;;22.50;22.50;;;;;;;;5124019;27;8937;-78
2023/09/14 08:17:51;;;;;;;;;21.50;20.50;;;;;;;;5123363;27;8951;-78
2023/09/14 08:20:16;;;;;;;;;27.50;22.75;;;;;;;;5134020;27;8808;-78
2023/09/14 08:22:41;;;;;;;;;25.75;21.75;;;;;;;;5144448;27;8842;-78
2023/09/14 08:25:07;;;;;;;;;24.75;21.25;;;;;;;;5143416;27;8872;-78
2023/09/14 08:27:32;;;;;;;;;25.50;24.00;;;;;;;;5125286;27;8862;-78
2023/09/14 08:29:58;;;;;;;;;25.25;19.00;;;;;;;;5124416;27;8893;-78
2023/09/14 08:32:23;;;;;;;;;24.50;22.00;;;;;;;;5130183;27;8913;-80
2023/09/14 08:34:48;;;;;;;;;23.25;20.00;;;;;;;;5122308;28;8901;-86
2023/09/14 08:37:13;;;;;;;;;30.25;25.00;;;;;;;;5122274;28;8803;-80
2023/09/14 08:39:39;;;;;;;;;30.25;24.75;;;;;;;;5141719;27;9938;-80
2023/09/14 08:42:04;;;;;;;;;26.25;22.75;;;;;;;;5143650;27;8815;-79
2023/09/14 08:44:33;;;;;;;;;27.50;22.00;;;;;;;;5143169;27;8854;-80
2023/09/14 08:47:00;;;;;;;;;28.25;25.75;;;;;;;;5142346;27;8840;-79
2023/09/14 08:49:27;;;;;;;;;29.50;23.75;;;;;;;;5143928;27;10698;-80
2023/09/14 08:51:54;;;;;;;;;23.75;22.25;;;;;;;;5143411;27;10433;-80
2023/09/14 08:54:21;;;;;;;;;27.50;22.00;;;;;;;;5143706;27;10278;-79
2023/09/14 08:56:49;;;;;;;;;30.25;23.25;;;;;;;;5141678;27;10402;-79
2023/09/14 08:59:15;;;;;;;;;25.00;22.00;;;;;;;;5143775;27;10471;-79
2023/09/14 09:01:42;;;;;;;;;22.25;19.75;;;;;;;;5132436;27;10273;-84
2023/09/14 09:04:07;;;;;;;;;24.75;23.00;;;;;;;;5129957;27;10271;-79
2023/09/14 09:06:32;;;;;;;;;24.75;22.25;;;;;;;;5141904;27;10182;-79
2023/09/14 09:08:59;;;;;;;;;26.75;24.00;;;;;;;;5142813;27;8772;-80
2023/09/14 09:11:24;;;;;;;;;29.75;28.00;;;;;;;;5141729;27;8792;-79
2023/09/14 09:13:49;;;;;;;;;25.75;20.25;;;;;;;;5142517;27;10511;-80
2023/09/14 09:16:15;;;;;;;;;27.75;22.50;;;;;;;;5143067;27;8756;-80
2023/09/14 09:18:59;;;;;;;;;28.25;26.75;;;;;;;;5144103;27;8830;-80
2023/09/14 09:21:28;;;;;;;;;26.25;24.75;;;;;;;;5144215;27;8813;-79
2023/09/14 09:23:53;;;;;;;;;27.50;24.00;;;;;;;;5143200;27;10264;-79
2023/09/14 09:26:20;;;;;;;;;23.75;23.75;;;;;;;;5144901;27;10349;-79
2023/09/14 09:28:47;;;;;;;;;25.50;22.50;;;;;;;;5145869;27;10355;-79
2023/09/14 09:31:12;;;;;;;;;25.25;21.75;;;;;;;;5122587;28;8795;-79
2023/09/14 09:33:37;;;;;;;;;23.75;22.50;;;;;;;;5123322;28;10138;-80
2023/09/14 09:36:16;;;;;;;;;26.75;24.00;;;;;;;;5121629;28;8851;-80
2023/09/14 09:38:41;;;;;;;;;23.75;23.00;;;;;;;;5123537;28;8735;-80
2023/09/14 09:41:09;;;;;;;;;24.00;19.25;;;;;;;;5122824;27;10362;-80
2023/09/14 09:43:34;;;;;;;;;26.50;22.25;;;;;;;;5121010;28;8760;-79
2023/09/14 09:45:59;;;;;;;;;26.75;21.75;;;;;;;;5122959;27;10099;-79
2023/09/14 09:48:27;;;;;;;;;28.50;22.00;;;;;;;;5143910;27;8780;-80
2023/09/14 09:50:53;;;;;;;;;29.00;23.00;;;;;;;;5143607;27;8807;-79
2023/09/14 09:53:19;;;;;;;;;28.00;24.25;;;;;;;;5143718;27;10051;-80
2023/09/14 09:55:47;;;;;;;;;28.25;24.75;;;;;;;;5141509;27;9968;-80
2023/09/14 09:58:16;;;;;;;;;23.75;21.00;;;;;;;;5142872;27;8768;-80
2023/09/14 10:00:42;;;;;;;;;21.75;21.75;;;;;;;;5143497;27;10057;-79
2023/09/14 10:03:07;;;;;;;;;24.75;20.00;;;;;;;;5140860;27;10150;-80
2023/09/14 10:05:35;;;;;;;;;25.50;24.00;;;;;;;;5143369;27;8831;-80
2023/09/14 10:08:02;;;;;;;;;20.00;17.00;;;;;;;;5125439;27;9409;-80
2023/09/14 10:10:28;;;;;;;;;33.50;25.50;;;;;;;;5122894;28;9771;-80
2023/09/14 10:12:54;;;;;;;;;21.50;18.50;;;;;;;;5120872;28;10003;-80
2023/09/14 10:15:20;;;;;;;;;25.75;21.50;;;;;;;;5122640;27;11529;-80
2023/09/14 10:17:46;;;;;;;;;22.75;17.75;;;;;;;;5122065;28;11550;-80
2023/09/14 10:20:12;;;;;;;;;14.33;12.00;;;;;;;;5123764;28;9545;-80
2023/09/14 10:22:40;;;;;;;;;14.00;12.25;;;;;;;;5126376;28;9429;-80
2023/09/14 10:25:07;;;;;;;;;18.00;14.33;;;;;;;;5125096;27;9690;-80
2023/09/14 10:27:33;;;;;;;;;19.00;15.00;;;;;;;;5125719;27;9548;-80
2023/09/14 10:29:59;;;;;;;;;15.00;12.67;;;;;;;;5123652;27;9504;-80
2023/09/14 10:32:25;;;;;;;;;13.00;11.00;;;;;;;;5142856;27;8800;-80
2023/09/14 10:34:50;;;;;;;;;10.00;10.00;;;;;;;;5126251;27;8786;-80
2023/09/14 10:37:16;;;;;;;;;15.75;13.00;;;;;;;;5125819;27;8787;-80
2023/09/14 10:39:44;;;;;;;;;12.00;10.00;;;;;;;;5124602;28;8753;-80
2023/09/14 10:42:09;;;;;;;;;13.33;12.00;;;;;;;;5124870;27;9481;-81
2023/09/14 10:44:35;;;;;;;;;11.00;7.67;;;;;;;;5137848;27;9532;-78
2023/09/14 10:47:02;;;;;;;;;12.67;10.00;;;;;;;;5143820;27;10012;-80
2023/09/14 10:49:29;;;;;;;;;16.67;13.00;;;;;;;;5146415;27;8701;-80
2023/09/14 10:51:55;;;;;;;;;16.75;14.75;;;;;;;;5145640;27;9461;-80
2023/09/14 10:54:31;;;;;;;;;13.00;13.00;;;;;;;;5145538;27;9410;-80
2023/09/14 10:56:57;;;;;;;;;11.67;11.67;;;;;;;;5145734;27;9577;-79
2023/09/14 10:59:41;;;;;;;;;14.00;13.00;;;;;;;;5144526;27;9350;-81
2023/09/14 11:02:06;;;;;;;;;8.00;8.00;;;;;;;;5144541;27;8819;-80
2023/09/14 11:04:31;;;;;;;;;9.00;9.00;;;;;;;;5125913;27;9192;-78
2023/09/14 11:06:59;;;;;;;;;4.00;2.33;;;;;;;;5145980;27;8831;-82
2023/09/14 11:09:24;;;;;;;;;8.00;8.00;;;;;;;;5136124;27;8764;-77
2023/09/14 11:11:50;;;;;;;;;9.67;8.33;;;;;;;;5118571;27;9208;-76
2023/09/14 11:14:17;;;;;;;;;10.00;6.00;;;;;;;;5124001;27;8803;-76
2023/09/14 11:16:43;;;;;;;;;7.33;7.33;;;;;;;;5135196;27;10083;-76
2023/09/14 11:19:08;;;;;;;;;7.00;7.00;;;;;;;;5133967;27;9203;-75
2023/09/14 11:21:33;;;;;;;;;10.67;9.00;;;;;;;;5135914;27;8835;-76
2023/09/14 11:24:02;;;;;;;;;11.00;10.00;;;;;;;;5138818;27;9604;-76
2023/09/14 11:26:31;;;;;;;;;13.00;11.33;;;;;;;;5133353;27;10076;-76
2023/09/14 11:28:57;;;;;;;;;10.33;10.33;;;;;;;;5124354;27;9225;-76
2023/09/14 11:31:28;;;;;;;;;11.33;7.67;;;;;;;;5122650;27;10174;-76
2023/09/14 11:33:54;;;;;;;;;9.67;8.00;;;;;;;;5128655;27;9178;-76
2023/09/14 11:36:19;;;;;;;;;11.00;9.33;;;;;;;;5125497;27;10486;-76
2023/09/14 11:38:44;;;;;;;;;9.67;9.67;;;;;;;;5130832;27;9319;-76
2023/09/14 11:41:29;;;;;;;;;8.67;8.67;;;;;;;;5124699;27;8848;-76
2023/09/14 11:44:02;;;;;;;;;7.00;5.33;;;;;;;;5128554;27;8855;-76
2023/09/14 11:46:27;;;;;;;;;5.00;5.00;;;;;;;;5127772;27;9281;-76
2023/09/14 11:48:52;;;;;;;;;8.67;8.00;;;;;;;;5127816;27;8944;-76
2023/09/14 11:51:24;;;;;;;;;3.33;3.33;;;;;;;;5125155;27;8833;-75
2023/09/14 11:53:49;;;;;;;;;7.00;4.33;;;;;;;;5126443;27;8725;-76
2023/09/14 11:56:17;;;;;;;;;5.67;5.67;;;;;;;;5124224;27;9148;-76
2023/09/14 11:58:43;;;;;;;;;4.25;4.00;;;;;;;;5124957;27;8815;-76
2023/09/14 12:01:09;;;;;;;;;4.75;4.00;;;;;;;;5129668;27;8769;-76
2023/09/14 12:03:36;;;;;;;;;4.00;4.00;;;;;;;;5127943;27;8841;-76
2023/09/14 12:06:02;;;;;;;;;3.00;3.00;;;;;;;;5125455;27;8845;-76
2023/09/14 12:08:28;;;;;;;;;4.00;3.00;;;;;;;;5130164;27;8729;-76
2023/09/14 12:10:55;;;;;;;;;5.00;4.67;;;;;;;;5126628;27;10975;-76
2023/09/14 12:13:20;;;;;;;;;7.00;4.00;;;;;;;;5125175;27;8773;-76
2023/09/14 12:15:46;;;;;;;;;5.00;5.00;;;;;;;;5131045;27;9201;-76
2023/09/14 12:18:12;;;;;;;;;5.33;4.00;;;;;;;;5126768;27;8747;-76
2023/09/14 12:20:42;;;;;;;;;6.00;5.00;;;;;;;;5122919;27;8960;-76
2023/09/14 12:23:09;;;;;;;;;6.67;5.00;;;;;;;;5123575;27;8871;-76
2023/09/14 12:25:35;;;;;;;;;6.00;6.00;;;;;;;;5122942;27;9271;-76
2023/09/14 12:28:03;;;;;;;;;3.00;3.00;;;;;;;;5129401;27;8941;-76
2023/09/14 12:30:29;;;;;;;;;4.00;4.00;;;;;;;;5126306;27;8993;-76
2023/09/14 12:32:54;;;;;;;;;5.00;4.33;;;;;;;;5136905;27;8913;-76
2023/09/14 12:35:19;;;;;;;;;4.00;4.00;;;;;;;;5133738;27;9605;-76
2023/09/14 12:37:45;;;;;;;;;4.00;3.33;;;;;;;;5131475;27;8884;-76
2023/09/14 12:40:12;;;;;;;;;4.00;4.00;;;;;;;;5130347;27;8911;-76
2023/09/14 12:42:40;;;;;;;;;4.67;4.67;;;;;;;;5139843;27;8733;-76
2023/09/14 12:45:15;;;;;;;;;3.50;3.50;;;;;;;;5128295;27;8904;-76
2023/09/14 12:47:44;;;;;;;;;6.67;4.33;;;;;;;;5133759;27;8814;-76
2023/09/14 12:50:15;;;;;;;;;3.00;3.00;;;;;;;;5125899;27;9021;-76
2023/09/14 12:52:41;;;;;;;;;3.67;3.67;;;;;;;;5124584;27;8756;-76
2023/09/14 12:55:11;;;;;;;;;4.50;4.00;;;;;;;;5125091;27;11285;-76
2023/09/14 12:57:36;;;;;;;;;3.00;3.00;;;;;;;;5134196;27;8796;-76
2023/09/14 13:00:27;;;;;;;;;4.33;3.67;;;;;;;;5132793;27;8800;-76
2023/09/14 13:02:51;;;;;;;;;4.67;2.67;;;;;;;;5122804;27;8803;-76
2023/09/14 13:05:23;;;;;;;;;4.50;3.25;;;;;;;;5124704;27;10390;-76
2023/09/14 13:07:49;;;;;;;;;4.00;3.75;;;;;;;;5123861;27;8826;-76
2023/09/14 13:10:19;;;;;;;;;3.75;3.75;;;;;;;;5126082;27;8792;-76
2023/09/14 13:12:49;;;;;;;;;6.67;3.67;;;;;;;;5122268;27;8742;-76
2023/09/14 13:15:24;;;;;;;;;5.00;4.00;;;;;;;;5120050;27;8899;-76
2023/09/14 13:17:58;;;;;;;;;3.50;3.50;;;;;;;;5124064;27;8805;-76
2023/09/14 13:20:26;;;;;;;;;7.00;4.00;;;;;;;;5125751;27;8787;-76
2023/09/14 13:22:51;;;;;;;;;6.00;3.67;;;;;;;;5121844;27;8832;-76
2023/09/14 13:25:17;;;;;;;;;5.00;3.00;;;;;;;;5123807;27;8988;-76
2023/09/14 13:27:42;;;;;;;;;4.00;4.00;;;;;;;;5135807;27;8803;-76
2023/09/14 13:30:09;;;;;;;;;4.00;4.00;;;;;;;;5136995;27;9253;-76
2023/09/14 13:32:34;;;;;;;;;6.00;4.67;;;;;;;;5124706;27;9800;-76
2023/09/14 13:35:00;;;;;;;;;3.67;3.67;;;;;;;;5118951;28;10232;-76
2023/09/14 13:37:25;;;;;;;;;5.00;4.00;;;;;;;;5128093;27;8805;-76
2023/09/14 13:39:50;;;;;;;;;5.00;4.00;;;;;;;;5135840;27;8806;-77
2023/09/14 13:42:15;;;;;;;;;5.67;5.67;;;;;;;;5131296;27;8835;-80
2023/09/14 13:44:41;;;;;;;;;4.00;4.00;;;;;;;;5129053;27;8814;-84
2023/09/14 13:47:06;;;;;;;;;2.33;2.33;;;;;;;;5124086;27;8824;-81
2023/09/14 13:49:32;;;;;;;;;4.33;4.33;;;;;;;;5130572;27;9550;-78
2023/09/14 13:51:57;;;;;;;;;5.00;5.00;;;;;;;;5133032;27;8848;-77
2023/09/14 13:54:22;;;;;;;;;6.00;4.33;;;;;;;;5124607;27;9838;-77
2023/09/14 13:56:48;;;;;;;;;3.67;3.67;;;;;;;;5131988;27;8830;-78
2023/09/14 13:59:13;;;;;;;;;4.00;4.00;;;;;;;;5128404;27;9146;-80
2023/09/14 14:01:39;;;;;;;;;6.00;4.67;;;;;;;;5127543;27;9596;-77
2023/09/14 14:04:04;;;;;;;;;5.00;2.00;;;;;;;;5124305;27;10015;-77
2023/09/14 14:06:30;;;;;;;;;3.00;3.00;;;;;;;;5132235;27;8873;-77
2023/09/14 14:08:55;;;;;;;;;3.67;2.67;;;;;;;;5126104;27;9550;-81
2023/09/14 14:11:20;;;;;;;;;3.33;2.00;;;;;;;;5123524;27;8961;-79
2023/09/14 14:13:46;;;;;;;;;3.00;3.00;;;;;;;;5132998;27;10036;-82
2023/09/14 14:16:11;;;;;;;;;4.00;4.00;;;;;;;;5135439;27;8824;-77
2023/09/14 14:18:36;;;;;;;;;3.00;3.00;;;;;;;;5132847;27;8803;-77
2023/09/14 14:21:02;;;;;;;;;2.00;2.00;;;;;;;;5133401;27;8890;-77
2023/09/14 14:23:27;;;;;;;;;4.00;3.00;;;;;;;;5132365;27;8768;-77
2023/09/14 14:25:54;;;;;;;;;4.33;2.67;;;;;;;;5139155;27;11492;-77
2023/09/14 14:28:20;;;;;;;;;5.50;4.00;;;;;;;;5129298;27;8791;-77